createdAt,value
2019-06-07T00:00:47.599Z,100694.37
2019-06-07T00:03:26.528Z,100694.01
2019-06-07T00:05:44.620Z,100688.00
2019-06-07T00:08:21.764Z,100689.77
2019-06-07T00:10:41.476Z,100692.77
2019-06-07T00:13:09.699Z,100695.02
2019-06-07T00:15:37.327Z,100693.02
2019-06-07T00:18:04.920Z,100698.66
2019-06-07T00:20:33.458Z,100696.19
2019-06-07T00:23:01.015Z,100693.86
2019-06-07T00:25:28.517Z,100694.09
2019-06-07T00:27:56.108Z,100696.62
2019-06-07T00:30:43.724Z,100696.69
2019-06-07T00:32:53.453Z,100693.08
2019-06-07T00:35:22.454Z,100696.06
2019-06-07T00:37:50.090Z,100694.80
2019-06-07T00:40:24.979Z,100694.31
2019-06-07T00:42:46.925Z,100697.63
2019-06-07T00:45:18.350Z,100692.55
2019-06-07T00:47:43.909Z,100699.11
2019-06-07T00:50:11.580Z,100703.62
2019-06-07T00:55:09.093Z,100698.69
2019-06-07T00:57:36.685Z,100703.14
2019-06-07T01:00:05.110Z,100702.12
2019-06-07T01:02:34.412Z,100702.63
2019-06-07T01:05:02.307Z,100704.00
2019-06-07T01:07:29.974Z,100692.91
2019-06-07T01:09:57.481Z,100702.04
2019-06-07T01:12:27.081Z,100695.54
2019-06-07T01:14:54.429Z,100697.62
2019-06-07T01:17:39.912Z,100697.80
2019-06-07T01:19:55.717Z,100701.96
2019-06-07T01:22:27.503Z,100697.69
2019-06-07T01:24:52.709Z,100697.97
2019-06-07T01:27:22.546Z,100702.45
2019-06-07T01:29:49.335Z,100701.13
2019-06-07T01:32:17.474Z,100699.80
2019-06-07T01:34:46.209Z,100698.05
2019-06-07T01:37:13.647Z,100702.00
2019-06-07T01:39:41.160Z,100703.73
2019-06-07T01:42:08.604Z,100711.98
2019-06-07T01:44:36.059Z,100708.05
2019-06-07T01:47:03.970Z,100702.22
2019-06-07T01:49:31.429Z,100706.77
2019-06-07T01:51:58.837Z,100704.19
2019-06-07T01:54:52.171Z,100704.37
2019-06-07T01:56:55.953Z,100705.61
2019-06-07T01:59:25.094Z,100704.42
2019-06-07T02:01:53.755Z,100711.44
2019-06-07T02:04:23.330Z,100707.38
2019-06-07T02:06:51.601Z,100702.53
2019-06-07T02:09:20.842Z,100702.52
2019-06-07T02:11:48.403Z,100709.41
2019-06-07T02:14:16.054Z,100710.23
2019-06-07T02:16:43.554Z,100708.70
2019-06-07T02:19:10.920Z,100710.25
2019-06-07T02:21:38.414Z,100710.34
2019-06-07T02:24:05.890Z,100712.23
2019-06-07T02:26:33.394Z,100712.80
2019-06-07T02:29:01.002Z,100708.31
2019-06-07T02:31:36.296Z,100708.27
2019-06-07T02:33:57.734Z,100699.73
2019-06-07T02:36:29.714Z,100697.80
2019-06-07T02:38:54.461Z,100698.51
2019-06-07T02:41:25.783Z,100697.56
2019-06-07T02:43:51.370Z,100699.45
2019-06-07T02:46:30.391Z,100700.02
2019-06-07T02:48:54.867Z,100698.02
2019-06-07T02:51:24.458Z,100698.50
2019-06-07T02:53:51.943Z,100693.63
2019-06-07T02:56:48.556Z,100687.28
2019-06-07T02:58:48.763Z,100684.23
2019-06-07T03:01:16.635Z,100689.02
2019-06-07T03:03:44.399Z,100682.05
2019-06-07T03:06:15.180Z,100682.45
2019-06-07T03:08:44.617Z,100696.58
2019-06-07T03:11:14.105Z,100693.23
2019-06-07T03:13:44.424Z,100690.22
2019-06-07T03:16:13.690Z,100688.16
2019-06-07T03:19:07.767Z,100693.92
2019-06-07T03:21:36.633Z,100690.72
2019-06-07T03:24:04.695Z,100688.67
2019-06-07T03:26:42.456Z,100695.53
2019-06-07T03:29:01.670Z,100699.30
2019-06-07T03:31:35.506Z,100698.67
2019-06-07T03:33:58.676Z,100702.47
2019-06-07T03:36:27.569Z,100709.20
2019-06-07T03:38:56.519Z,100714.95
2019-06-07T03:41:23.981Z,100711.80
2019-06-07T03:43:51.468Z,100710.93
2019-06-07T03:46:18.901Z,100707.18
2019-06-07T03:48:46.401Z,100702.74
2019-06-07T03:51:24.764Z,100702.09
2019-06-07T03:53:43.444Z,100695.97
2019-06-07T03:56:11.812Z,100689.34
2019-06-07T03:58:49.212Z,100704.61
2019-06-07T04:01:09.433Z,100701.28
2019-06-07T04:03:46.486Z,100707.34
2019-06-07T04:06:06.745Z,100710.53
2019-06-07T04:08:38.296Z,100708.87
2019-06-07T04:11:03.595Z,100704.75
2019-06-07T04:13:36.768Z,100707.41
2019-06-07T04:16:01.327Z,100707.78
2019-06-07T04:18:28.741Z,100710.47
2019-06-07T04:20:56.222Z,100709.95
2019-06-07T04:23:28.300Z,100710.30
2019-06-07T04:25:54.073Z,100710.58
2019-06-07T04:32:16.695Z,100712.42
2019-06-07T04:35:31.433Z,100721.16
2019-06-07T04:44:58.665Z,100720.40
2019-06-07T04:48:05.281Z,100719.00
2019-06-07T04:55:06.476Z,100712.25
2019-06-07T04:58:52.182Z,100706.69
2019-06-07T05:01:27.389Z,100706.91
2019-06-07T05:03:49.013Z,100708.73
2019-06-07T05:06:16.548Z,100700.58
2019-06-07T05:08:44.433Z,100697.56
2019-06-07T05:11:11.998Z,100697.92
2019-06-07T05:13:43.499Z,100699.80
2019-06-07T05:16:10.215Z,100697.58
2019-06-07T05:18:40.179Z,100697.55
2019-06-07T05:21:06.988Z,100701.70
2019-06-07T05:26:04.038Z,100706.55
2019-06-07T05:28:32.571Z,100700.31
2019-06-07T05:31:05.364Z,100704.08
2019-06-07T05:33:31.140Z,100697.95
2019-06-07T05:35:58.878Z,100696.92
2019-06-07T05:38:26.528Z,100700.27
2019-06-07T05:40:53.998Z,100700.77
2019-06-07T05:43:23.702Z,100696.94
2019-06-07T05:45:51.275Z,100696.97
2019-06-07T05:48:18.866Z,100691.72
2019-06-07T05:50:56.104Z,100688.45
2019-06-07T05:53:15.524Z,100692.09
2019-06-07T05:55:47.121Z,100692.41
2019-06-07T05:58:12.278Z,100695.53
2019-06-07T06:00:41.580Z,100698.05
2019-06-07T06:03:08.999Z,100694.18
2019-06-07T06:05:41.734Z,100700.90
2019-06-07T06:08:05.881Z,100702.42
2019-06-07T06:10:33.958Z,100689.87
2019-06-07T06:13:01.597Z,100675.23
2019-06-07T06:15:42.205Z,100676.08
2019-06-07T06:17:59.626Z,100686.99
2019-06-07T06:20:32.791Z,100695.31
2019-06-07T06:22:56.383Z,100685.14
2019-06-07T06:25:33.657Z,100667.83
2019-06-07T06:28:10.595Z,100679.88
2019-06-07T06:30:23.079Z,100674.86
2019-06-07T06:32:57.518Z,100680.09
2019-06-07T06:35:20.090Z,100680.81
2019-06-07T06:37:52.991Z,100679.00
2019-06-07T06:40:17.317Z,100677.95
2019-06-07T06:42:48.577Z,100672.94
2019-06-07T06:45:14.993Z,100674.92
2019-06-07T06:47:43.325Z,100670.47
2019-06-07T06:50:11.827Z,100671.38
2019-06-07T06:52:42.206Z,100671.22
2019-06-07T06:55:09.265Z,100661.92
2019-06-07T06:57:36.684Z,100663.15
2019-06-07T07:00:06.366Z,100666.59
2019-06-07T07:02:34.069Z,100665.84
2019-06-07T07:05:01.694Z,100670.40
2019-06-07T07:07:30.234Z,100665.30
2019-06-07T07:09:59.922Z,100678.55
2019-06-07T07:12:27.787Z,100681.16
2019-06-07T07:14:56.270Z,100672.09
2019-06-07T07:17:46.799Z,100665.95
2019-06-07T07:19:55.528Z,100655.70
2019-06-07T07:22:22.650Z,100653.87
2019-06-07T07:24:53.387Z,100640.49
2019-06-07T07:27:19.517Z,100649.78
2019-06-07T07:29:49.635Z,100651.63
2019-06-07T07:32:16.594Z,100645.64
2019-06-07T07:34:46.242Z,100657.55
2019-06-07T07:37:13.422Z,100646.16
2019-06-07T07:39:41.046Z,100638.99
2019-06-07T07:42:20.917Z,100634.23
2019-06-07T07:44:37.827Z,100632.33
2019-06-07T07:47:05.299Z,100636.20
2019-06-07T07:49:33.906Z,100640.94
2019-06-07T07:52:01.457Z,100630.69
2019-06-07T07:54:29.022Z,100639.83
2019-06-07T07:56:57.358Z,100634.13
2019-06-07T07:59:41.371Z,100632.53
2019-06-07T08:01:56.137Z,100627.02
2019-06-07T08:04:39.520Z,100619.94
2019-06-07T08:06:54.743Z,100624.95
2019-06-07T08:09:22.643Z,100621.70
2019-06-07T08:11:52.933Z,100626.08
2019-06-07T08:14:19.810Z,100625.28
2019-06-07T08:16:47.314Z,100625.50
2019-06-07T08:19:15.046Z,100624.20
2019-06-07T08:21:42.604Z,100617.94
2019-06-07T08:24:10.170Z,100611.11
2019-06-07T08:26:38.804Z,100621.39
2019-06-07T08:29:06.420Z,100619.08
2019-06-07T08:31:36.459Z,100600.09
2019-06-07T08:34:04.408Z,100596.03
2019-06-07T08:36:41.909Z,100598.50
2019-06-07T08:39:07.299Z,100596.34
2019-06-07T08:41:32.350Z,100587.88
2019-06-07T08:44:04.287Z,100588.24
2019-06-07T08:46:29.372Z,100584.65
2019-06-07T08:49:02.210Z,100604.09
2019-06-07T08:51:26.460Z,100601.34
2019-06-07T08:54:15.881Z,100586.70
2019-06-07T08:56:25.371Z,100583.89
2019-06-07T08:58:55.021Z,100599.13
2019-06-07T09:01:22.374Z,100581.72
2019-06-07T09:03:50.050Z,100587.97
2019-06-07T09:07:01.001Z,100578.05
2019-06-07T09:08:47.252Z,100581.22
2019-06-07T09:11:14.827Z,100581.41
2019-06-07T09:13:42.238Z,100582.87
2019-06-07T09:16:09.722Z,100586.94
2019-06-07T09:18:43.537Z,100582.95
2019-06-07T09:21:09.840Z,100580.16
2019-06-07T09:23:37.516Z,100550.16
2019-06-07T09:26:15.574Z,100553.84
2019-06-07T09:28:34.601Z,100548.09
2019-06-07T09:31:06.884Z,100572.40
2019-06-07T09:33:33.702Z,100567.36
2019-06-07T09:36:07.081Z,100562.75
2019-06-07T09:38:30.607Z,100564.05
2019-06-07T09:40:59.885Z,100554.87
2019-06-07T09:45:58.190Z,100545.31
2019-06-07T09:49:09.181Z,100545.92
2019-06-07T09:51:01.960Z,100534.56
2019-06-07T09:53:24.748Z,100536.66
2019-06-07T09:55:52.239Z,100531.89
2019-06-07T10:00:52.227Z,100531.93
2019-06-07T10:03:22.267Z,100525.00
2019-06-07T10:05:49.279Z,100521.53
2019-06-07T10:09:26.285Z,100533.84
2019-06-07T10:10:46.019Z,100511.63
2019-06-07T10:13:13.582Z,100516.88
2019-06-07T10:15:41.502Z,100516.82
2019-06-07T10:18:09.299Z,100505.75
2019-06-07T10:20:37.430Z,100516.44
2019-06-07T10:23:05.749Z,100503.84
2019-06-07T10:25:33.409Z,100504.14
2019-06-07T10:28:01.821Z,100504.48
2019-06-07T10:30:33.234Z,100476.77
2019-06-07T10:33:02.100Z,100493.02
2019-06-07T10:35:29.839Z,100489.70
2019-06-07T10:37:58.244Z,100487.03
2019-06-07T10:40:25.920Z,100487.56
2019-06-07T10:42:53.464Z,100486.52
2019-06-07T10:45:21.040Z,100484.00
2019-06-07T10:47:48.571Z,100471.63
2019-06-07T10:50:17.212Z,100472.06
2019-06-07T10:52:44.727Z,100461.93
2019-06-07T10:55:12.733Z,100455.88
2019-06-07T10:57:40.232Z,100455.08
2019-06-07T11:00:09.515Z,100457.34
2019-06-07T11:02:37.295Z,100459.02
2019-06-07T11:05:07.522Z,100456.23
2019-06-07T11:07:37.231Z,100450.67
2019-06-07T11:10:09.388Z,100448.62
2019-06-07T11:12:34.275Z,100447.89
2019-06-07T11:15:04.726Z,100440.58
2019-06-07T11:17:32.401Z,100435.06
2019-06-07T11:19:59.849Z,100437.67
2019-06-07T11:22:27.438Z,100436.73
2019-06-07T11:24:54.881Z,100430.27
2019-06-07T11:27:22.510Z,100437.20
2019-06-07T11:29:50.274Z,100433.20
2019-06-07T11:32:18.844Z,100427.45
2019-06-07T11:34:49.253Z,100422.97
2019-06-07T11:37:16.383Z,100422.33
2019-06-07T11:39:43.989Z,100405.75
2019-06-07T11:42:12.085Z,100404.55
2019-06-07T11:44:55.772Z,100408.52
2019-06-07T11:47:10.451Z,100401.42
2019-06-07T11:49:38.177Z,100389.67
2019-06-07T11:52:05.663Z,100396.60
2019-06-07T11:54:33.555Z,100403.86
2019-06-07T11:57:01.412Z,100386.51
2019-06-07T11:59:28.918Z,100376.59
2019-06-07T12:01:57.159Z,100375.23
2019-06-07T12:04:34.520Z,100380.13
2019-06-07T12:06:54.028Z,100373.63
2019-06-07T12:09:21.603Z,100368.78
2019-06-07T12:11:49.166Z,100365.51
2019-06-07T12:14:16.881Z,100363.70
2019-06-07T12:16:44.346Z,100361.55
2019-06-07T12:19:12.001Z,100369.67
2019-06-07T12:21:40.738Z,100362.09
2019-06-07T12:24:08.246Z,100355.97
2019-06-07T12:26:35.837Z,100347.63
2019-06-07T12:29:03.605Z,100348.57
2019-06-07T12:31:31.096Z,100337.80
2019-06-07T12:33:58.727Z,100341.72
2019-06-07T12:36:26.252Z,100333.10
2019-06-07T12:38:53.854Z,100329.31
2019-06-07T12:41:22.347Z,100324.00
2019-06-07T12:43:49.903Z,100323.41
2019-06-07T12:46:23.382Z,100322.39
2019-06-07T12:48:47.284Z,100310.26
2019-06-07T12:51:15.200Z,100314.23
2019-06-07T12:53:42.742Z,100306.13
2019-06-07T12:56:10.202Z,100315.13
2019-06-07T12:58:39.547Z,100311.55
2019-06-07T13:01:06.870Z,100298.99
2019-06-07T13:03:35.445Z,100294.80
2019-06-07T13:06:02.965Z,100284.09
2019-06-07T13:08:30.564Z,100299.10
2019-06-07T13:11:14.333Z,100282.34
2019-06-07T13:13:28.647Z,100288.52
2019-06-07T13:15:56.195Z,100281.30
2019-06-07T13:18:25.150Z,100277.52
2019-06-07T13:20:55.357Z,100277.86
2019-06-07T13:23:22.590Z,100277.77
2019-06-07T13:25:50.262Z,100276.30
2019-06-07T13:28:20.760Z,100264.30
2019-06-07T13:30:48.294Z,100272.50
2019-06-07T13:33:16.856Z,100274.75
2019-06-07T13:35:45.188Z,100244.02
2019-06-07T13:38:24.533Z,100258.45
2019-06-07T13:40:52.744Z,100264.34
2019-06-07T13:43:21.375Z,100253.23
2019-06-07T13:45:49.242Z,100245.56
2019-06-07T13:48:17.115Z,100243.58
2019-06-07T13:50:44.569Z,100234.45
2019-06-07T13:53:12.032Z,100236.89
2019-06-07T13:55:39.530Z,100235.36
2019-06-07T13:58:07.718Z,100228.30
2019-06-07T14:00:35.426Z,100224.22
2019-06-07T14:03:03.774Z,100223.50
2019-06-07T14:05:31.492Z,100221.90
2019-06-07T14:07:58.922Z,100222.63
2019-06-07T14:10:27.562Z,100223.33
2019-06-07T14:12:56.762Z,100219.70
2019-06-07T14:15:24.840Z,100220.58
2019-06-07T14:17:52.698Z,100214.59
2019-06-07T14:20:25.498Z,100215.50
2019-06-07T14:22:54.156Z,100218.88
2019-06-07T14:25:20.967Z,100199.30
2019-06-07T14:27:48.585Z,100204.10
2019-06-07T14:30:16.862Z,100209.17
2019-06-07T14:32:44.794Z,100206.63
2019-06-07T14:35:12.756Z,100200.22
2019-06-07T14:37:40.219Z,100206.92
2019-06-07T14:40:08.663Z,100203.42
2019-06-07T14:42:36.148Z,100203.56
2019-06-07T14:45:06.196Z,100204.89
2019-06-07T14:47:34.118Z,100203.75
2019-06-07T14:50:03.998Z,100206.89
2019-06-07T14:52:33.424Z,100199.87
2019-06-07T14:55:01.014Z,100206.53
2019-06-07T14:57:29.080Z,100203.98
2019-06-07T14:59:56.922Z,100205.48
2019-06-07T15:02:24.452Z,100202.87
2019-06-07T15:04:52.400Z,100200.64
2019-06-07T15:07:22.760Z,100197.03
2019-06-07T15:09:50.254Z,100187.53
2019-06-07T15:12:25.036Z,100186.02
2019-06-07T15:14:47.191Z,100190.50
2019-06-07T15:17:14.747Z,100184.23
2019-06-07T15:19:42.216Z,100164.79
2019-06-07T15:22:09.883Z,100169.73
2019-06-07T15:24:39.419Z,100161.98
2019-06-07T15:27:06.760Z,100158.23
2019-06-07T15:29:34.238Z,100152.03
2019-06-07T15:32:01.693Z,100147.48
2019-06-07T15:34:30.480Z,100134.99
2019-06-07T15:36:58.182Z,100131.52
2019-06-07T15:39:25.788Z,100126.39
2019-06-07T15:41:53.448Z,100117.20
2019-06-07T15:44:20.952Z,100121.60
2019-06-07T15:46:48.449Z,100111.08
2019-06-07T15:49:15.957Z,100116.71
2019-06-07T15:51:43.665Z,100113.92
2019-06-07T15:54:12.381Z,100106.81
2019-06-07T15:56:41.791Z,100111.56
2019-06-07T15:59:09.202Z,100110.58
2019-06-07T16:01:37.670Z,100104.05
2019-06-07T16:04:06.553Z,100106.41
2019-06-07T16:06:34.375Z,100104.84
2019-06-07T16:09:02.001Z,100089.58
2019-06-07T16:11:32.566Z,100066.61
2019-06-07T16:14:00.430Z,100034.19
2019-06-07T16:16:28.299Z,100045.62
2019-06-07T16:18:55.822Z,100039.84
2019-06-07T16:21:23.412Z,100021.70
2019-06-07T16:23:50.930Z,99999.78
2019-06-07T16:26:18.659Z,99984.77
2019-06-07T16:28:46.142Z,100000.69
2019-06-07T16:31:13.670Z,100006.30
2019-06-07T16:33:45.161Z,100006.81
2019-06-07T16:36:13.188Z,100013.48
2019-06-07T16:38:40.709Z,100015.67
2019-06-07T16:41:08.270Z,100026.77
2019-06-07T16:43:36.675Z,100033.54
2019-06-07T16:46:05.277Z,100036.27
2019-06-07T16:48:32.857Z,100046.08
2019-06-07T16:51:00.394Z,100039.60
2019-06-07T16:53:27.938Z,100044.28
2019-06-07T16:55:55.498Z,100039.61
2019-06-07T16:58:25.475Z,100035.81
2019-06-07T17:00:53.102Z,100038.72
2019-06-07T17:03:22.450Z,100030.30
2019-06-07T17:05:50.647Z,100019.01
2019-06-07T17:08:18.501Z,100029.27
2019-06-07T17:10:48.957Z,100018.47
2019-06-07T17:13:30.169Z,100024.77
2019-06-07T17:15:46.746Z,100021.23
2019-06-07T17:18:14.301Z,100027.37
2019-06-07T17:20:42.984Z,100022.02
2019-06-07T17:23:10.791Z,100021.70
2019-06-07T17:25:39.452Z,100024.42
2019-06-07T17:28:07.075Z,100022.54
2019-06-07T17:30:34.625Z,100017.88
2019-06-07T17:33:04.161Z,100017.70
2019-06-07T17:35:31.655Z,100022.88
2019-06-07T17:37:59.319Z,100004.08
2019-06-07T17:40:28.949Z,100004.25
2019-06-07T17:42:58.566Z,100005.48
2019-06-07T17:45:26.091Z,100007.06
2019-06-07T17:47:53.833Z,100010.36
2019-06-07T17:50:21.727Z,100014.25
2019-06-07T17:52:50.200Z,100017.54
2019-06-07T17:55:17.907Z,100016.77
2019-06-07T17:57:46.558Z,100011.69
2019-06-07T18:00:28.031Z,100017.97
2019-06-07T18:02:44.689Z,100029.56
2019-06-07T18:05:14.056Z,100031.83
2019-06-07T18:07:45.329Z,100030.78
2019-06-07T18:10:17.351Z,100027.60
2019-06-07T18:12:45.949Z,100032.61
2019-06-07T18:15:15.776Z,100020.30
2019-06-07T18:17:44.515Z,100016.23
2019-06-07T18:20:13.013Z,100010.11
2019-06-07T18:22:41.569Z,100017.26
2019-06-07T18:25:10.131Z,100021.48
2019-06-07T18:27:39.331Z,100026.19
2019-06-07T18:30:11.626Z,100023.45
2019-06-07T18:32:37.808Z,100019.14
2019-06-07T18:35:06.104Z,100021.41
2019-06-07T18:37:33.644Z,100025.61
2019-06-07T18:40:01.152Z,100031.41
2019-06-07T18:42:28.781Z,100026.73
2019-06-07T18:44:57.355Z,100021.44
2019-06-07T18:47:24.797Z,100032.05
2019-06-07T18:49:54.067Z,100024.31
2019-06-07T18:52:29.717Z,100019.30
2019-06-07T18:54:57.168Z,100011.38
2019-06-07T18:57:24.629Z,100009.66
2019-06-07T18:59:52.362Z,100004.61
2019-06-07T19:02:20.123Z,100001.06
2019-06-07T19:04:47.978Z,99996.88
2019-06-07T19:07:15.618Z,100003.41
2019-06-07T19:09:43.098Z,100001.92
2019-06-07T19:12:10.720Z,100009.36
2019-06-07T19:14:38.146Z,100013.00
2019-06-07T19:17:05.672Z,100014.82
2019-06-07T19:19:33.149Z,100027.17
2019-06-07T19:22:00.745Z,100019.28
2019-06-07T19:24:28.268Z,100028.47
2019-06-07T19:26:56.723Z,100030.37
2019-06-07T19:29:24.339Z,100040.63
2019-06-07T19:31:52.952Z,100035.22
2019-06-07T19:34:21.807Z,100035.42
2019-06-07T19:36:49.292Z,100042.05
2019-06-07T19:39:18.095Z,100050.39
2019-06-07T19:41:45.579Z,100045.62
2019-06-07T19:44:13.165Z,100046.80
2019-06-07T19:46:40.719Z,100057.19
2019-06-07T19:49:08.281Z,100066.90
2019-06-07T19:51:35.802Z,100063.52
2019-06-07T19:54:03.804Z,100071.77
2019-06-07T19:56:31.523Z,100075.16
2019-06-07T19:58:59.756Z,100074.52
2019-06-07T20:01:27.382Z,100071.65
2019-06-07T20:03:56.082Z,100070.84
2019-06-07T20:06:23.655Z,100070.63
2019-06-07T20:08:51.269Z,100071.81
2019-06-07T20:11:18.797Z,100072.73
2019-06-07T20:13:46.232Z,100064.25
2019-06-07T20:16:13.794Z,100073.83
2019-06-07T20:18:41.229Z,100069.71
2019-06-07T20:21:09.226Z,100073.15
2019-06-07T20:23:36.836Z,100076.38
2019-06-07T20:26:04.826Z,100073.06
2019-06-07T20:28:32.635Z,100066.80
2019-06-07T20:31:01.827Z,100067.13
2019-06-07T20:33:29.439Z,100075.00
2019-06-07T20:35:57.117Z,100076.30
2019-06-07T20:38:24.575Z,100085.63
2019-06-07T20:40:52.139Z,100105.79
2019-06-07T20:43:19.671Z,100146.30
2019-06-07T20:45:47.202Z,100167.06
2019-06-07T20:48:14.638Z,100199.34
2019-06-07T20:50:42.314Z,100250.31
2019-06-07T20:53:09.835Z,100304.55
2019-06-07T20:55:37.314Z,100298.89
2019-06-07T20:58:05.514Z,100307.73
2019-06-07T21:00:33.601Z,100307.17
2019-06-07T21:03:05.173Z,100300.62
2019-06-07T21:05:32.856Z,100313.45
2019-06-07T21:08:01.646Z,100318.57
2019-06-07T21:10:29.593Z,100321.74
2019-06-07T21:12:57.207Z,100330.16
2019-06-07T21:15:24.938Z,100342.34
2019-06-07T21:17:52.399Z,100348.89
2019-06-07T21:20:20.284Z,100365.44
2019-06-07T21:22:48.020Z,100379.46
2019-06-07T21:25:15.487Z,100412.91
2019-06-07T21:27:43.341Z,100420.70
2019-06-07T21:30:11.778Z,100424.17
2019-06-07T21:32:39.359Z,100408.49
2019-06-07T21:35:07.988Z,100407.07
2019-06-07T21:37:36.727Z,100397.29
2019-06-07T21:40:06.039Z,100390.55
2019-06-07T21:42:33.568Z,100393.63
2019-06-07T21:45:06.283Z,100414.39
2019-06-07T21:47:34.698Z,100427.79
2019-06-07T21:50:02.657Z,100429.95
2019-06-07T21:52:31.400Z,100424.50
2019-06-07T21:54:58.841Z,100424.09
2019-06-07T21:57:26.300Z,100429.12
2019-06-07T21:59:53.816Z,100443.31
2019-06-07T22:02:21.310Z,100470.61
2019-06-07T22:04:49.099Z,100489.15
2019-06-07T22:07:17.727Z,100484.86
2019-06-07T22:09:48.486Z,100482.01
2019-06-07T22:12:17.798Z,100484.50
2019-06-07T22:14:45.343Z,100488.77
2019-06-07T22:17:12.943Z,100489.70
2019-06-07T22:19:40.391Z,100474.84
2019-06-07T22:22:09.245Z,100480.80
2019-06-07T22:24:36.921Z,100483.92
2019-06-07T22:27:04.874Z,100477.69
2019-06-07T22:29:32.451Z,100477.98
2019-06-07T22:31:59.925Z,100463.81
2019-06-07T22:34:27.407Z,100459.05
2019-06-07T22:36:54.900Z,100464.25
2019-06-07T22:39:22.366Z,100452.45
2019-06-07T22:41:49.981Z,100446.63
2019-06-07T22:44:17.431Z,100461.07
2019-06-07T22:46:45.092Z,100473.58
2019-06-07T22:49:13.335Z,100462.89
2019-06-07T22:51:40.829Z,100459.03
2019-06-07T22:54:09.384Z,100452.02
2019-06-07T22:56:42.352Z,100421.13
2019-06-07T22:59:13.707Z,100420.45
2019-06-07T23:01:39.143Z,100409.41
2019-06-07T23:04:06.633Z,100418.58
2019-06-07T23:06:34.086Z,100423.98
2019-06-07T23:09:01.606Z,100394.48
2019-06-07T23:11:30.976Z,100435.54
2019-06-07T23:13:58.459Z,100503.03
2019-06-07T23:16:25.986Z,100511.30
2019-06-07T23:18:53.523Z,100511.29
2019-06-07T23:21:21.005Z,100522.79
2019-06-07T23:23:48.489Z,100539.38
2019-06-07T23:26:16.253Z,100536.87
2019-06-07T23:28:43.857Z,100536.75
2019-06-07T23:31:12.404Z,100537.20
2019-06-07T23:33:40.264Z,100531.58
2019-06-07T23:36:07.755Z,100532.26
2019-06-07T23:38:35.237Z,100525.86
2019-06-07T23:41:02.611Z,100525.13
2019-06-07T23:43:30.545Z,100528.94
2019-06-07T23:45:57.995Z,100507.59
2019-06-07T23:48:25.429Z,100513.38
2019-06-07T23:50:52.987Z,100513.66
2019-06-07T23:53:22.197Z,100503.00
2019-06-07T23:55:49.787Z,100508.03
2019-06-07T23:58:18.584Z,100505.37
